sensor_id;sensor_type;location;lat;lon;timestamp;temperature;humidity
13320;DHT22;59599;47.608;12.190;2023-03-22T05:04:57;8.70;99.90
13320;DHT22;59599;47.608;12.190;2023-03-22T05:29:19;8.90;99.90
13320;DHT22;59599;47.608;12.190;2023-03-22T05:31:45;8.80;99.90
13320;DHT22;59599;47.608;12.190;2023-03-22T05:34:11;9.00;99.90
13320;DHT22;59599;47.608;12.190;2023-03-22T05:41:30;9.00;99.90
13320;DHT22;59599;47.608;12.190;2023-03-22T05:43:58;8.90;99.90
13320;DHT22;59599;47.608;12.190;2023-03-22T05:48:49;9.00;99.90
13320;DHT22;59599;47.608;12.190;2023-03-22T05:53:43;9.00;99.90
13320;DHT22;59599;47.608;12.190;2023-03-22T05:56:09;8.90;99.90
13320;DHT22;59599;47.608;12.190;2023-03-22T05:58:35;8.90;99.90
13320;DHT22;59599;47.608;12.190;2023-03-22T06:01:11;8.70;99.90
13320;DHT22;59599;47.608;12.190;2023-03-22T06:03:38;8.70;99.90
13320;DHT22;59599;47.608;12.190;2023-03-22T06:06:05;8.70;99.90
13320;DHT22;59599;47.608;12.190;2023-03-22T06:10:58;8.70;99.90
13320;DHT22;59599;47.608;12.190;2023-03-22T06:35:19;8.60;99.90
13320;DHT22;59599;47.608;12.190;2023-03-22T06:45:03;8.90;99.90
13320;DHT22;59599;47.608;12.190;2023-03-22T06:47:29;9.00;99.90
13320;DHT22;59599;47.608;12.190;2023-03-22T06:59:38;9.10;99.90
13320;DHT22;59599;47.608;12.190;2023-03-22T07:14:17;9.50;99.90
13320;DHT22;59599;47.608;12.190;2023-03-22T07:19:08;9.70;99.90
13320;DHT22;59599;47.608;12.190;2023-03-22T07:28:52;10.30;99.90
13320;DHT22;59599;47.608;12.190;2023-03-22T07:45:54;11.50;99.90
13320;DHT22;59599;47.608;12.190;2023-03-22T07:48:21;11.60;99.90
13320;DHT22;59599;47.608;12.190;2023-03-22T07:55:39;11.80;99.90
13320;DHT22;59599;47.608;12.190;2023-03-22T07:58:07;11.90;99.90
13320;DHT22;59599;47.608;12.190;2023-03-22T08:00:33;12.00;99.90
13320;DHT22;59599;47.608;12.190;2023-03-22T08:03:00;12.20;99.90
13320;DHT22;59599;47.608;12.190;2023-03-22T08:05:26;12.50;99.90
13320;DHT22;59599;47.608;12.190;2023-03-22T08:07:51;12.60;99.90
13320;DHT22;59599;47.608;12.190;2023-03-22T08:10:18;12.80;99.90
13320;DHT22;59599;47.608;12.190;2023-03-22T08:12:44;12.90;99.90
13320;DHT22;59599;47.608;12.190;2023-03-22T08:15:09;12.80;99.90
13320;DHT22;59599;47.608;12.190;2023-03-22T08:17:35;13.00;99.90
13320;DHT22;59599;47.608;12.190;2023-03-22T08:29:49;13.40;99.90
13320;DHT22;59599;47.608;12.190;2023-03-22T08:34:42;13.40;99.90
13320;DHT22;59599;47.608;12.190;2023-03-22T08:37:09;13.60;99.90
13320;DHT22;59599;47.608;12.190;2023-03-22T08:39:35;13.70;99.90
13320;DHT22;59599;47.608;12.190;2023-03-22T08:51:46;14.30;99.90
13320;DHT22;59599;47.608;12.190;2023-03-22T08:59:04;14.80;99.90
13320;DHT22;59599;47.608;12.190;2023-03-22T09:03:56;14.70;99.90
13320;DHT22;59599;47.608;12.190;2023-03-22T09:06:23;14.80;99.90
13320;DHT22;59599;47.608;12.190;2023-03-22T09:18:36;15.30;99.90
13320;DHT22;59599;47.608;12.190;2023-03-22T09:21:01;15.40;99.90
13320;DHT22;59599;47.608;12.190;2023-03-22T09:23:27;15.50;99.90
13320;DHT22;59599;47.608;12.190;2023-03-22T09:25:54;15.60;99.90
13320;DHT22;59599;47.608;12.190;2023-03-22T09:28:20;15.80;99.90
13320;DHT22;59599;47.608;12.190;2023-03-22T09:30:46;15.90;99.90
13320;DHT22;59599;47.608;12.190;2023-03-22T09:33:11;15.90;99.90
13320;DHT22;59599;47.608;12.190;2023-03-22T09:35:41;15.80;99.90
13320;DHT22;59599;47.608;12.190;2023-03-22T09:38:07;15.80;99.90
13320;DHT22;59599;47.608;12.190;2023-03-22T09:40:33;15.90;99.90
13320;DHT22;59599;47.608;12.190;2023-03-22T09:43:02;16.00;99.90
13320;DHT22;59599;47.608;12.190;2023-03-22T09:45:33;16.10;99.90
13320;DHT22;59599;47.608;12.190;2023-03-22T09:48:04;16.30;99.90
13320;DHT22;59599;47.608;12.190;2023-03-22T09:50:43;16.40;99.90
13320;DHT22;59599;47.608;12.190;2023-03-22T09:53:13;16.50;99.90
13320;DHT22;59599;47.608;12.190;2023-03-22T10:01:10;16.90;99.90
13320;DHT22;59599;47.608;12.190;2023-03-22T10:03:58;17.00;99.90
13320;DHT22;59599;47.608;12.190;2023-03-22T10:09:13;17.20;99.90
13320;DHT22;59599;47.608;12.190;2023-03-22T10:11:45;17.30;99.90
13320;DHT22;59599;47.608;12.190;2023-03-22T10:14:27;17.20;99.90
13320;DHT22;59599;47.608;12.190;2023-03-22T10:16:55;17.40;99.90
13320;DHT22;59599;47.608;12.190;2023-03-22T10:19:37;17.60;99.90
13320;DHT22;59599;47.608;12.190;2023-03-22T10:22:06;17.70;99.90
13320;DHT22;59599;47.608;12.190;2023-03-22T10:24:37;17.60;99.90
13320;DHT22;59599;47.608;12.190;2023-03-22T10:27:14;17.70;99.90
13320;DHT22;59599;47.608;12.190;2023-03-22T10:29:44;17.70;99.90
13320;DHT22;59599;47.608;12.190;2023-03-22T10:32:18;17.70;99.90
13320;DHT22;59599;47.608;12.190;2023-03-22T10:34:44;17.70;99.90
13320;DHT22;59599;47.608;12.190;2023-03-22T10:37:16;17.80;99.90
13320;DHT22;59599;47.608;12.190;2023-03-22T10:39:45;17.90;99.90
13320;DHT22;59599;47.608;12.190;2023-03-22T10:42:17;18.10;99.90
13320;DHT22;59599;47.608;12.190;2023-03-22T10:44:49;18.30;99.90
13320;DHT22;59599;47.608;12.190;2023-03-22T10:47:18;18.30;99.90
13320;DHT22;59599;47.608;12.190;2023-03-22T10:49:49;18.40;99.90
13320;DHT22;59599;47.608;12.190;2023-03-22T10:52:53;18.50;99.90
13320;DHT22;59599;47.608;12.190;2023-03-22T10:55:22;18.50;99.90
13320;DHT22;59599;47.608;12.190;2023-03-22T10:57:58;18.60;99.90
13320;DHT22;59599;47.608;12.190;2023-03-22T11:02:57;18.80;99.90
13320;DHT22;59599;47.608;12.190;2023-03-22T11:05:26;18.80;99.90
13320;DHT22;59599;47.608;12.190;2023-03-22T11:07:52;18.90;99.90
13320;DHT22;59599;47.608;12.190;2023-03-22T11:10:29;18.90;99.90
13320;DHT22;59599;47.608;12.190;2023-03-22T11:15:34;19.00;99.90
13320;DHT22;59599;47.608;12.190;2023-03-22T11:18:12;19.20;99.90
13320;DHT22;59599;47.608;12.190;2023-03-22T11:20:40;19.20;99.90
13320;DHT22;59599;47.608;12.190;2023-03-22T11:23:10;19.10;99.90
13320;DHT22;59599;47.608;12.190;2023-03-22T11:25:46;19.10;99.90
13320;DHT22;59599;47.608;12.190;2023-03-22T11:28:19;19.30;99.90
13320;DHT22;59599;47.608;12.190;2023-03-22T11:31:01;19.30;99.90
13320;DHT22;59599;47.608;12.190;2023-03-22T11:33:27;19.40;99.90
13320;DHT22;59599;47.608;12.190;2023-03-22T11:35:56;19.60;99.90
13320;DHT22;59599;47.608;12.190;2023-03-22T11:38:27;19.80;99.90
13320;DHT22;59599;47.608;12.190;2023-03-22T11:41:00;19.90;99.90
13320;DHT22;59599;47.608;12.190;2023-03-22T11:43:37;20.00;99.90
13320;DHT22;59599;47.608;12.190;2023-03-22T11:46:07;20.20;99.90
13320;DHT22;59599;47.608;12.190;2023-03-22T11:51:06;20.40;99.90
13320;DHT22;59599;47.608;12.190;2023-03-22T11:53:34;20.40;99.90
13320;DHT22;59599;47.608;12.190;2023-03-22T11:56:02;20.40;99.90
13320;DHT22;59599;47.608;12.190;2023-03-22T12:01:07;20.60;99.90
13320;DHT22;59599;47.608;12.190;2023-03-22T12:03:37;20.60;99.90
13320;DHT22;59599;47.608;12.190;2023-03-22T12:08:58;20.70;99.90
13320;DHT22;59599;47.608;12.190;2023-03-22T12:11:38;21.00;99.90
13320;DHT22;59599;47.608;12.190;2023-03-22T12:14:20;21.00;99.90
13320;DHT22;59599;47.608;12.190;2023-03-22T12:16:50;21.20;99.90
13320;DHT22;59599;47.608;12.190;2023-03-22T12:19:37;21.30;99.90
13320;DHT22;59599;47.608;12.190;2023-03-22T12:22:15;21.40;99.90
13320;DHT22;59599;47.608;12.190;2023-03-22T12:24:41;21.50;99.90
13320;DHT22;59599;47.608;12.190;2023-03-22T12:27:19;21.60;99.90
13320;DHT22;59599;47.608;12.190;2023-03-22T12:30:00;21.80;99.90
13320;DHT22;59599;47.608;12.190;2023-03-22T12:32:34;22.00;99.90
13320;DHT22;59599;47.608;12.190;2023-03-22T12:35:03;22.10;99.90
13320;DHT22;59599;47.608;12.190;2023-03-22T12:37:33;22.10;99.90
13320;DHT22;59599;47.608;12.190;2023-03-22T12:40:27;22.20;99.90
13320;DHT22;59599;47.608;12.190;2023-03-22T12:45:44;22.20;93.20
13320;DHT22;59599;47.608;12.190;2023-03-22T12:48:19;22.20;91.70
13320;DHT22;59599;47.608;12.190;2023-03-22T12:53:17;22.50;92.30
13320;DHT22;59599;47.608;12.190;2023-03-22T12:55:45;22.70;92.10
13320;DHT22;59599;47.608;12.190;2023-03-22T12:58:15;22.90;91.40
13320;DHT22;59599;47.608;12.190;2023-03-22T13:00:52;23.00;91.80
13320;DHT22;59599;47.608;12.190;2023-03-22T13:03:27;23.10;88.20
13320;DHT22;59599;47.608;12.190;2023-03-22T13:06:05;23.20;90.00
13320;DHT22;59599;47.608;12.190;2023-03-22T13:09:01;23.30;90.30
13320;DHT22;59599;47.608;12.190;2023-03-22T13:16:20;23.80;86.30
13320;DHT22;59599;47.608;12.190;2023-03-22T13:21:24;23.80;90.40
13320;DHT22;59599;47.608;12.190;2023-03-22T13:23:58;23.80;86.40
13320;DHT22;59599;47.608;12.190;2023-03-22T13:26:32;23.40;86.70
13320;DHT22;59599;47.608;12.190;2023-03-22T13:29:01;23.20;90.50
13320;DHT22;59599;47.608;12.190;2023-03-22T13:31:37;23.00;90.70
13320;DHT22;59599;47.608;12.190;2023-03-22T13:34:12;23.10;90.80
13320;DHT22;59599;47.608;12.190;2023-03-22T13:36:39;23.00;90.60
13320;DHT22;59599;47.608;12.190;2023-03-22T13:39:08;23.00;91.70
13320;DHT22;59599;47.608;12.190;2023-03-22T13:41:35;23.00;90.90
13320;DHT22;59599;47.608;12.190;2023-03-22T13:44:17;23.00;91.40
13320;DHT22;59599;47.608;12.190;2023-03-22T13:46:46;22.80;91.20
13320;DHT22;59599;47.608;12.190;2023-03-22T13:49:24;22.70;90.70
13320;DHT22;59599;47.608;12.190;2023-03-22T13:51:52;22.70;92.30
13320;DHT22;59599;47.608;12.190;2023-03-22T13:54:21;23.00;91.50
13320;DHT22;59599;47.608;12.190;2023-03-22T13:56:57;23.10;91.60
13320;DHT22;59599;47.608;12.190;2023-03-22T14:02:16;23.20;91.10
13320;DHT22;59599;47.608;12.190;2023-03-22T14:04:49;23.10;91.50
13320;DHT22;59599;47.608;12.190;2023-03-22T14:07:39;23.10;91.20
13320;DHT22;59599;47.608;12.190;2023-03-22T14:13:32;23.80;90.20
13320;DHT22;59599;47.608;12.190;2023-03-22T14:16:10;24.00;88.40
13320;DHT22;59599;47.608;12.190;2023-03-22T14:18:41;23.90;89.90
13320;DHT22;59599;47.608;12.190;2023-03-22T14:21:12;23.90;88.50
13320;DHT22;59599;47.608;12.190;2023-03-22T14:23:44;23.90;90.20
13320;DHT22;59599;47.608;12.190;2023-03-22T14:28:42;24.40;88.40
13320;DHT22;59599;47.608;12.190;2023-03-22T14:31:20;24.30;86.50
13320;DHT22;59599;47.608;12.190;2023-03-22T14:33:46;24.20;87.30
13320;DHT22;59599;47.608;12.190;2023-03-22T14:36:14;24.40;88.00
13320;DHT22;59599;47.608;12.190;2023-03-22T14:38:43;24.30;86.90
13320;DHT22;59599;47.608;12.190;2023-03-22T14:43:40;24.50;86.60
13320;DHT22;59599;47.608;12.190;2023-03-22T14:48:41;25.00;84.90
13320;DHT22;59599;47.608;12.190;2023-03-22T14:51:15;25.10;82.90
13320;DHT22;59599;47.608;12.190;2023-03-22T14:53:44;25.00;86.20
13320;DHT22;59599;47.608;12.190;2023-03-22T14:56:16;25.00;82.90
13320;DHT22;59599;47.608;12.190;2023-03-22T14:58:43;25.10;84.40
13320;DHT22;59599;47.608;12.190;2023-03-22T15:01:16;24.90;81.40
13320;DHT22;59599;47.608;12.190;2023-03-22T15:03:46;24.60;81.60
13320;DHT22;59599;47.608;12.190;2023-03-22T15:06:13;24.40;84.90
13320;DHT22;59599;47.608;12.190;2023-03-22T15:08:39;24.60;83.00
13320;DHT22;59599;47.608;12.190;2023-03-22T15:11:07;24.50;82.80
13320;DHT22;59599;47.608;12.190;2023-03-22T15:13:36;24.60;83.00
13320;DHT22;59599;47.608;12.190;2023-03-22T15:16:03;24.90;80.80
13320;DHT22;59599;47.608;12.190;2023-03-22T15:18:32;24.60;81.10
13320;DHT22;59599;47.608;12.190;2023-03-22T15:21:00;24.60;82.10
13320;DHT22;59599;47.608;12.190;2023-03-22T15:23:36;25.30;81.60
13320;DHT22;59599;47.608;12.190;2023-03-22T15:26:07;25.70;80.90
13320;DHT22;59599;47.608;12.190;2023-03-22T15:28:40;26.00;77.00
13320;DHT22;59599;47.608;12.190;2023-03-22T15:31:21;26.30;76.50
13320;DHT22;59599;47.608;12.190;2023-03-22T15:33:50;26.40;74.60
13320;DHT22;59599;47.608;12.190;2023-03-22T15:36:17;26.60;74.20
13320;DHT22;59599;47.608;12.190;2023-03-22T15:38:44;27.30;73.90
13320;DHT22;59599;47.608;12.190;2023-03-22T15:41:33;27.60;71.70
13320;DHT22;59599;47.608;12.190;2023-03-22T15:44:13;28.00;71.30
13320;DHT22;59599;47.608;12.190;2023-03-22T15:46:55;28.60;68.10
13320;DHT22;59599;47.608;12.190;2023-03-22T15:51:53;29.20;68.30
13320;DHT22;59599;47.608;12.190;2023-03-22T15:54:25;29.40;65.00
13320;DHT22;59599;47.608;12.190;2023-03-22T15:56:52;29.80;63.20
13320;DHT22;59599;47.608;12.190;2023-03-22T15:59:23;30.00;62.60
13320;DHT22;59599;47.608;12.190;2023-03-22T16:01:49;30.10;61.90
13320;DHT22;59599;47.608;12.190;2023-03-22T16:04:21;29.70;61.20
13320;DHT22;59599;47.608;12.190;2023-03-22T16:09:14;28.80;62.10
13320;DHT22;59599;47.608;12.190;2023-03-22T16:16:33;27.00;63.70
13320;DHT22;59599;47.608;12.190;2023-03-22T16:18:58;26.80;65.80
13320;DHT22;59599;47.608;12.190;2023-03-22T16:21:29;26.80;66.80
13320;DHT22;59599;47.608;12.190;2023-03-22T16:23:57;27.70;66.60
13320;DHT22;59599;47.608;12.190;2023-03-22T16:26:23;28.60;64.00
13320;DHT22;59599;47.608;12.190;2023-03-22T16:28:48;29.50;62.50
13320;DHT22;59599;47.608;12.190;2023-03-22T16:31:16;29.90;62.20
13320;DHT22;59599;47.608;12.190;2023-03-22T16:33:43;29.90;62.30
13320;DHT22;59599;47.608;12.190;2023-03-22T16:36:10;29.40;62.70
13320;DHT22;59599;47.608;12.190;2023-03-22T16:41:06;27.60;65.00
13320;DHT22;59599;47.608;12.190;2023-03-22T16:43:32;26.50;65.70
13320;DHT22;59599;47.608;12.190;2023-03-22T16:45:58;25.60;67.90
13320;DHT22;59599;47.608;12.190;2023-03-22T16:50:53;24.10;72.60
13320;DHT22;59599;47.608;12.190;2023-03-22T16:55:45;22.90;76.70
13320;DHT22;59599;47.608;12.190;2023-03-22T16:58:12;22.50;78.40
13320;DHT22;59599;47.608;12.190;2023-03-22T17:00:39;22.00;79.40
13320;DHT22;59599;47.608;12.190;2023-03-22T17:03:06;21.80;81.20
13320;DHT22;59599;47.608;12.190;2023-03-22T17:05:34;21.50;82.20
13320;DHT22;59599;47.608;12.190;2023-03-22T17:10:30;21.00;83.80
13320;DHT22;59599;47.608;12.190;2023-03-22T17:15:34;20.40;85.90
13320;DHT22;59599;47.608;12.190;2023-03-22T17:18:02;20.20;87.60
13320;DHT22;59599;47.608;12.190;2023-03-22T17:20:29;19.90;88.70
13320;DHT22;59599;47.608;12.190;2023-03-22T17:22:57;19.80;89.70
13320;DHT22;59599;47.608;12.190;2023-03-22T17:25:25;19.50;90.30
13320;DHT22;59599;47.608;12.190;2023-03-22T17:27:53;19.40;90.90
13320;DHT22;59599;47.608;12.190;2023-03-22T17:30:19;19.10;91.60
13320;DHT22;59599;47.608;12.190;2023-03-22T17:32:45;18.80;92.20
13320;DHT22;59599;47.608;12.190;2023-03-22T17:35:16;18.60;92.70
13320;DHT22;59599;47.608;12.190;2023-03-22T17:40:11;18.40;93.30
13320;DHT22;59599;47.608;12.190;2023-03-22T17:42:37;18.30;93.30
13320;DHT22;59599;47.608;12.190;2023-03-22T17:52:22;17.90;94.20
13320;DHT22;59599;47.608;12.190;2023-03-22T17:59:39;17.60;94.40
13320;DHT22;59599;47.608;12.190;2023-03-22T18:04:31;17.40;95.10
13320;DHT22;59599;47.608;12.190;2023-03-22T18:06:57;17.30;95.80
13320;DHT22;59599;47.608;12.190;2023-03-22T18:11:49;17.10;97.10
13320;DHT22;59599;47.608;12.190;2023-03-22T18:14:15;17.10;97.80
13320;DHT22;59599;47.608;12.190;2023-03-22T18:28:53;16.50;99.90
13320;DHT22;59599;47.608;12.190;2023-03-22T18:31:19;16.30;99.90
13320;DHT22;59599;47.608;12.190;2023-03-22T18:33:45;16.20;99.90
13320;DHT22;59599;47.608;12.190;2023-03-22T18:38:37;16.10;99.90
13320;DHT22;59599;47.608;12.190;2023-03-22T18:41:07;16.00;99.90
13320;DHT22;59599;47.608;12.190;2023-03-22T18:43:37;15.80;99.90
13320;DHT22;59599;47.608;12.190;2023-03-22T18:46:10;15.80;99.90
13320;DHT22;59599;47.608;12.190;2023-03-22T18:48:37;15.70;99.90
13320;DHT22;59599;47.608;12.190;2023-03-22T18:51:03;15.60;99.90
13320;DHT22;59599;47.608;12.190;2023-03-22T19:10:32;15.30;99.90
13320;DHT22;59599;47.608;12.190;2023-03-22T19:20:16;15.00;99.90
13320;DHT22;59599;47.608;12.190;2023-03-22T19:22:41;14.90;99.90
13320;DHT22;59599;47.608;12.190;2023-03-22T19:27:33;14.70;99.90
13320;DHT22;59599;47.608;12.190;2023-03-22T19:29:59;14.60;99.90
13320;DHT22;59599;47.608;12.190;2023-03-22T19:42:10;14.30;99.90
13320;DHT22;59599;47.608;12.190;2023-03-22T19:56:50;14.10;99.90
13320;DHT22;59599;47.608;12.190;2023-03-22T20:04:09;13.70;99.90
13320;DHT22;59599;47.608;12.190;2023-03-22T20:06:35;13.60;99.90
13320;DHT22;59599;47.608;12.190;2023-03-22T20:09:01;13.70;99.90
13320;DHT22;59599;47.608;12.190;2023-03-22T20:11:27;13.70;99.90
13320;DHT22;59599;47.608;12.190;2023-03-22T20:13:53;13.60;99.90
13320;DHT22;59599;47.608;12.190;2023-03-22T20:16:19;13.60;99.90
13320;DHT22;59599;47.608;12.190;2023-03-22T20:18:45;13.40;99.90
13320;DHT22;59599;47.608;12.190;2023-03-22T20:23:36;13.50;99.90
13320;DHT22;59599;47.608;12.190;2023-03-22T20:26:03;13.20;99.90
13320;DHT22;59599;47.608;12.190;2023-03-22T20:28:30;13.20;99.90
13320;DHT22;59599;47.608;12.190;2023-03-22T20:33:24;13.10;99.90
13320;DHT22;59599;47.608;12.190;2023-03-22T20:35:49;13.20;99.90
13320;DHT22;59599;47.608;12.190;2023-03-22T20:38:20;13.10;99.90
13320;DHT22;59599;47.608;12.190;2023-03-22T20:43:12;13.10;99.90
13320;DHT22;59599;47.608;12.190;2023-03-22T20:45:37;13.00;99.90
13320;DHT22;59599;47.608;12.190;2023-03-22T20:50:30;12.90;99.90
13320;DHT22;59599;47.608;12.190;2023-03-22T20:52:56;12.90;99.90
13320;DHT22;59599;47.608;12.190;2023-03-22T21:00:16;12.80;99.90
13320;DHT22;59599;47.608;12.190;2023-03-22T21:02:44;12.60;99.90
13320;DHT22;59599;47.608;12.190;2023-03-22T21:07:48;12.60;99.90
13320;DHT22;59599;47.608;12.190;2023-03-22T21:10:16;12.60;99.90
13320;DHT22;59599;47.608;12.190;2023-03-22T21:15:09;12.30;99.90
13320;DHT22;59599;47.608;12.190;2023-03-22T21:17:37;12.40;99.90
13320;DHT22;59599;47.608;12.190;2023-03-22T21:20:04;12.40;99.90
13320;DHT22;59599;47.608;12.190;2023-03-22T21:22:31;12.30;99.90
13320;DHT22;59599;47.608;12.190;2023-03-22T21:24:57;12.00;99.90
13320;DHT22;59599;47.608;12.190;2023-03-22T21:27:23;11.90;99.90
13320;DHT22;59599;47.608;12.190;2023-03-22T21:29:51;11.80;99.90
13320;DHT22;59599;47.608;12.190;2023-03-22T21:32:17;11.90;99.90
13320;DHT22;59599;47.608;12.190;2023-03-22T21:34:43;11.80;99.90
13320;DHT22;59599;47.608;12.190;2023-03-22T21:39:35;12.00;99.90
13320;DHT22;59599;47.608;12.190;2023-03-22T21:42:02;12.10;99.90
13320;DHT22;59599;47.608;12.190;2023-03-22T21:49:26;11.60;99.90
13320;DHT22;59599;47.608;12.190;2023-03-22T21:51:52;11.70;99.90
13320;DHT22;59599;47.608;12.190;2023-03-22T21:54:19;11.80;99.90
13320;DHT22;59599;47.608;12.190;2023-03-22T21:59:11;11.90;99.90
13320;DHT22;59599;47.608;12.190;2023-03-22T22:04:04;11.80;99.90
13320;DHT22;59599;47.608;12.190;2023-03-22T22:06:30;11.70;99.90
13320;DHT22;59599;47.608;12.190;2023-03-22T22:13:49;11.70;99.90
13320;DHT22;59599;47.608;12.190;2023-03-22T22:21:11;11.50;99.90
13320;DHT22;59599;47.608;12.190;2023-03-22T22:23:39;11.60;99.90
13320;DHT22;59599;47.608;12.190;2023-03-22T22:26:06;11.60;99.90
13320;DHT22;59599;47.608;12.190;2023-03-22T22:28:35;11.70;99.90
13320;DHT22;59599;47.608;12.190;2023-03-22T22:31:06;11.70;99.90
13320;DHT22;59599;47.608;12.190;2023-03-22T22:33:32;11.70;99.90
13320;DHT22;59599;47.608;12.190;2023-03-22T22:38:24;11.70;99.90
13320;DHT22;59599;47.608;12.190;2023-03-22T22:40:53;11.60;99.90
13320;DHT22;59599;47.608;12.190;2023-03-22T22:43:18;11.60;99.90
13320;DHT22;59599;47.608;12.190;2023-03-22T22:57:54;11.40;99.90
13320;DHT22;59599;47.608;12.190;2023-03-22T23:49:12;10.70;99.90
13320;DHT22;59599;47.608;12.190;2023-03-22T23:51:38;9.70;99.90
13320;DHT22;59599;47.608;12.190;2023-03-22T23:54:05;10.80;99.90
13320;DHT22;59599;47.608;12.190;2023-03-22T23:56:31;10.70;99.90
13320;DHT22;59599;47.608;12.190;2023-03-22T23:58:59;10.80;99.90
